createdAt,value
2019-04-11T16:14:23.399Z,35.51
2019-04-11T16:15:23.418Z,36.21
2019-04-11T16:16:23.250Z,36.39
2019-04-11T16:18:28.152Z,30.31
2019-04-11T16:19:28.129Z,21.20
2019-04-11T16:20:28.104Z,22.58
2019-04-11T16:21:28.729Z,22.91
2019-04-11T16:22:28.987Z,26.21
2019-04-11T16:23:29.620Z,29.90
2019-04-11T16:24:28.589Z,33.51
2019-04-11T16:25:29.338Z,32.83
2019-04-11T16:26:28.040Z,34.17
2019-04-11T16:27:28.008Z,34.09
2019-04-11T16:28:28.013Z,34.84
2019-04-11T16:29:27.982Z,35.88
2019-04-11T16:30:27.994Z,36.51
2019-04-11T16:33:56.342Z,38.72
2019-04-11T16:34:48.932Z,39.03
2019-04-11T16:35:47.883Z,39.34
2019-04-11T16:36:47.741Z,39.04
2019-04-11T16:37:48.329Z,39.46
2019-04-11T16:38:49.852Z,39.66
2019-04-11T16:39:50.180Z,39.66
2019-04-11T16:40:47.784Z,39.56
2019-04-11T16:41:47.704Z,39.66
2019-04-11T16:42:47.667Z,40.09
2019-04-11T16:43:47.642Z,39.99
2019-04-11T16:44:47.813Z,40.09
2019-04-11T16:45:47.644Z,39.99
2019-04-11T16:46:47.622Z,40.30
2019-04-11T16:47:47.709Z,40.50
2019-04-11T16:48:47.582Z,39.68
2019-04-11T16:49:47.652Z,39.48
2019-04-11T16:50:47.612Z,39.27
2019-04-11T16:51:47.662Z,39.27
2019-04-11T16:52:47.545Z,38.96
2019-04-11T16:53:47.532Z,39.06
2019-04-11T16:54:47.533Z,38.14
2019-04-11T16:55:47.504Z,38.55
2019-04-11T16:56:47.493Z,37.93
2019-04-11T16:57:47.502Z,37.42
2019-04-11T16:58:50.077Z,36.80
2019-04-11T16:59:49.564Z,37.21
2019-04-11T17:00:52.162Z,37.32
2019-04-11T17:01:48.444Z,36.08
2019-04-11T17:02:47.462Z,36.19
2019-04-11T17:03:47.422Z,36.60
2019-04-11T17:04:47.412Z,35.77
2019-04-11T17:05:47.410Z,35.67
2019-04-11T17:06:47.420Z,35.07
2019-04-11T17:07:47.385Z,35.58
2019-04-11T17:08:47.393Z,35.48
2019-04-11T17:09:47.371Z,35.89
2019-04-11T17:10:47.345Z,35.58
2019-04-11T17:11:47.332Z,35.91
2019-04-11T17:12:47.342Z,36.01
2019-04-11T17:13:47.360Z,36.43
2019-04-11T17:14:47.312Z,36.73
2019-04-11T17:15:47.292Z,37.15
2019-04-11T17:16:47.292Z,37.15
2019-04-11T17:17:47.294Z,37.35
2019-04-11T17:18:47.402Z,37.76
2019-04-11T17:19:47.251Z,37.87
2019-04-11T17:20:47.243Z,37.97
2019-04-11T17:21:48.414Z,38.07
2019-04-11T17:22:48.855Z,38.07
2019-04-11T17:23:47.822Z,38.17
2019-04-11T17:24:48.119Z,38.28
2019-04-11T17:25:52.452Z,37.76
2019-04-11T17:26:48.192Z,37.78
2019-04-11T17:27:47.186Z,38.09
2019-04-11T17:28:47.199Z,38.09
2019-04-11T17:29:47.171Z,38.50
2019-04-11T17:30:47.205Z,39.01
2019-04-11T17:31:47.189Z,38.60
2019-04-11T17:32:47.112Z,38.09
2019-04-11T17:33:47.114Z,37.37
2019-04-11T17:34:47.154Z,37.57
2019-04-11T17:35:47.082Z,37.47
2019-04-11T17:36:47.076Z,36.75
2019-04-11T17:37:47.051Z,37.16
2019-04-11T17:38:47.054Z,37.16
2019-04-11T17:39:47.064Z,37.47
2019-04-11T17:40:47.021Z,37.26
2019-04-11T17:41:47.032Z,37.78
2019-04-11T17:42:47.034Z,37.78
2019-04-11T17:43:51.298Z,37.68
2019-04-11T17:44:47.094Z,37.47
2019-04-11T17:45:46.994Z,37.26
2019-04-11T17:49:43.056Z,36.66
2019-04-11T17:50:06.677Z,36.87
2019-04-11T17:51:09.440Z,36.87
2019-04-11T17:52:06.653Z,36.87
2019-04-11T17:53:06.646Z,37.18
2019-04-11T17:54:06.724Z,37.28
2019-04-11T17:55:06.613Z,37.59
2019-04-11T17:56:06.704Z,37.59
2019-04-11T17:57:06.608Z,37.92
2019-04-11T17:58:06.733Z,37.92
2019-04-11T17:59:06.593Z,37.71
2019-04-11T18:00:06.574Z,37.40
2019-04-11T18:01:06.543Z,37.51
2019-04-11T18:02:10.082Z,37.61
2019-04-11T18:03:06.532Z,37.61
2019-04-11T18:04:08.698Z,37.81
2019-04-11T18:05:06.583Z,37.81
2019-04-11T18:06:06.634Z,38.02
2019-04-11T18:07:06.484Z,38.33
2019-04-11T18:08:06.489Z,38.33
2019-04-11T18:09:06.543Z,38.54
2019-04-11T18:10:06.503Z,38.12
2019-04-11T18:11:06.472Z,38.33
2019-04-11T18:12:06.482Z,38.33
2019-04-11T18:13:06.545Z,38.33
2019-04-11T18:14:06.403Z,38.45
2019-04-11T18:15:07.576Z,38.65
2019-04-11T18:16:06.392Z,38.76
2019-04-11T18:17:06.395Z,38.76
2019-04-11T18:18:06.369Z,39.07
2019-04-11T18:19:06.703Z,38.86
2019-04-11T18:20:06.914Z,39.17
2019-04-11T18:21:07.336Z,39.28
2019-04-11T18:22:08.048Z,39.38
2019-04-11T18:23:06.312Z,39.48
2019-04-11T18:24:06.293Z,39.38
2019-04-11T18:25:06.303Z,39.17
2019-04-11T18:26:06.284Z,39.17
2019-04-11T18:27:06.272Z,39.28
2019-04-11T18:28:06.260Z,39.17
2019-04-11T18:29:06.262Z,39.17
2019-04-11T18:30:06.232Z,38.56
2019-04-11T18:31:06.372Z,39.07
2019-04-11T18:32:06.222Z,39.17
2019-04-11T18:33:06.192Z,39.07
2019-04-11T18:34:06.181Z,39.38
2019-04-11T18:35:06.201Z,39.50
2019-04-11T18:36:06.162Z,39.19
2019-04-11T18:37:06.199Z,39.70
2019-04-11T18:38:06.141Z,39.61
2019-04-11T18:39:06.151Z,39.40
2019-04-11T18:40:10.092Z,39.70
2019-04-11T18:41:06.112Z,39.70
2019-04-11T18:42:06.132Z,39.81
2019-04-11T18:43:06.155Z,39.91
2019-04-11T18:44:06.164Z,39.91
2019-04-11T18:45:06.070Z,39.81
2019-04-11T18:46:06.052Z,39.70
2019-04-11T18:47:06.092Z,40.01
2019-04-11T18:48:06.051Z,39.91
2019-04-11T18:49:06.041Z,39.91
2019-04-11T18:50:06.052Z,39.91
2019-04-11T18:51:06.000Z,40.33
2019-04-11T18:52:06.021Z,40.12
2019-04-11T18:53:06.013Z,40.43
2019-04-11T18:54:07.784Z,40.01
2019-04-11T18:55:05.964Z,40.73
2019-04-11T18:56:05.942Z,40.43
2019-04-11T18:57:05.976Z,40.33
2019-04-11T18:58:05.933Z,40.53
2019-04-11T18:59:05.910Z,40.01
2019-04-11T19:00:07.994Z,39.91
2019-04-11T19:01:08.834Z,39.91
2019-04-11T19:02:09.596Z,39.70
2019-04-11T19:03:08.078Z,39.50
2019-04-11T19:04:05.940Z,39.40
2019-04-11T19:05:05.992Z,39.40
2019-04-11T19:06:05.903Z,39.19
2019-04-11T19:07:05.834Z,39.29
2019-04-11T19:08:05.810Z,39.61
2019-04-11T19:09:05.880Z,39.81
2019-04-11T19:10:05.781Z,39.61
2019-04-11T19:11:05.789Z,40.01
2019-04-11T19:12:05.760Z,39.81
2019-04-11T19:13:05.750Z,39.61
2019-04-11T19:14:05.762Z,39.09
2019-04-11T19:15:05.870Z,38.98
2019-04-11T19:16:06.222Z,39.19
2019-04-11T19:17:06.111Z,39.09
2019-04-11T19:18:07.019Z,39.50
2019-04-11T19:19:05.841Z,39.09
2019-04-11T19:20:05.833Z,38.98
2019-04-11T19:21:05.670Z,39.09
2019-04-11T19:22:05.660Z,39.29
2019-04-11T19:23:07.659Z,39.29
2019-04-11T19:24:09.090Z,39.40
2019-04-11T19:25:06.642Z,39.42
2019-04-11T19:26:05.600Z,39.62
2019-04-11T19:27:05.602Z,39.83
2019-04-11T19:28:05.593Z,39.72
2019-04-11T19:29:06.286Z,39.93
2019-04-11T19:30:05.614Z,40.14
2019-04-11T19:31:05.602Z,40.34
2019-04-11T19:32:05.540Z,40.55
2019-04-11T19:33:05.541Z,40.43
2019-04-11T19:34:08.602Z,39.83
2019-04-11T19:35:06.000Z,40.03
2019-04-11T19:36:05.605Z,40.24
2019-04-11T19:37:05.519Z,40.55
2019-04-11T19:38:05.506Z,40.45
2019-04-11T19:39:05.491Z,40.66
2019-04-11T19:40:05.460Z,40.66
2019-04-11T19:41:05.441Z,40.86
2019-04-11T19:42:08.998Z,40.96
2019-04-11T19:43:06.710Z,41.06
2019-04-11T19:44:05.561Z,41.17
2019-04-11T19:45:05.483Z,41.06
2019-04-11T19:46:05.399Z,41.58
2019-04-11T19:47:05.378Z,41.38
2019-04-11T19:48:05.389Z,41.58
2019-04-11T19:49:05.446Z,41.27
2019-04-11T19:50:05.352Z,41.38
2019-04-11T19:51:05.439Z,41.79
2019-04-11T19:52:05.329Z,41.79
2019-04-11T19:53:05.430Z,41.89
2019-04-11T19:54:07.573Z,41.79
2019-04-11T19:55:05.454Z,41.79
2019-04-11T19:56:05.986Z,41.99
2019-04-11T19:57:05.296Z,41.79
2019-04-11T19:58:05.271Z,41.99
2019-04-11T19:59:05.249Z,42.41
2019-04-11T20:00:06.095Z,42.41
2019-04-11T20:01:05.252Z,42.30
2019-04-11T20:02:05.339Z,42.20
2019-04-11T20:03:05.308Z,42.41
2019-04-11T20:04:05.199Z,42.30
2019-04-11T20:05:05.229Z,42.61
2019-04-11T20:06:05.505Z,43.85
2019-04-11T20:07:05.159Z,42.93
2019-04-11T20:08:05.212Z,42.82
2019-04-11T20:09:05.138Z,42.41
2019-04-11T20:10:05.258Z,42.41
2019-04-11T20:11:05.128Z,42.51
2019-04-11T20:12:05.209Z,42.82
2019-04-11T20:13:05.139Z,43.13
2019-04-11T20:14:07.790Z,42.51
2019-04-11T20:15:05.713Z,42.51
2019-04-11T20:16:05.056Z,41.99
2019-04-11T20:17:05.089Z,41.89
2019-04-11T20:18:05.047Z,41.79
2019-04-11T20:19:05.032Z,41.79
2019-04-11T20:20:07.194Z,42.10
2019-04-11T20:21:07.309Z,41.89
2019-04-11T20:22:08.388Z,42.02
2019-04-11T20:23:04.987Z,41.91
2019-04-11T20:24:05.004Z,41.91
2019-04-11T20:25:04.961Z,41.91
2019-04-11T20:26:05.085Z,42.11
2019-04-11T20:27:04.928Z,41.71
2019-04-11T20:28:04.998Z,42.02
2019-04-11T20:29:04.921Z,42.43
2019-04-11T20:30:04.919Z,42.63
2019-04-11T20:31:04.908Z,42.22
2019-04-11T20:32:05.277Z,42.32
2019-04-11T20:33:04.886Z,42.53
2019-04-11T20:34:07.280Z,42.84
2019-04-11T20:35:09.297Z,42.74
2019-04-11T20:36:08.181Z,43.15
2019-04-11T20:37:04.826Z,43.25
2019-04-11T20:38:04.848Z,43.15
2019-04-11T20:39:04.808Z,43.15
2019-04-11T20:40:04.836Z,43.15
2019-04-11T20:41:04.778Z,43.56
2019-04-11T20:42:04.791Z,43.79
2019-04-11T20:43:04.775Z,43.66
2019-04-11T20:44:04.748Z,43.15
2019-04-11T20:45:04.746Z,42.63
2019-04-11T20:46:04.737Z,42.86
2019-04-11T20:47:04.780Z,42.53
2019-04-11T20:48:04.809Z,42.76
2019-04-11T20:49:04.687Z,42.76
2019-04-11T20:50:07.718Z,42.86
2019-04-11T20:51:04.668Z,42.74
2019-04-11T20:52:04.690Z,43.07
2019-04-11T20:53:12.718Z,43.17
2019-04-11T20:54:07.351Z,43.27
2019-04-11T20:55:08.982Z,42.86
2019-04-11T20:56:09.510Z,42.86
2019-04-11T20:57:05.677Z,42.86
2019-04-11T20:58:04.627Z,43.07
2019-04-11T20:59:04.597Z,43.17
2019-04-11T21:00:04.600Z,43.27
2019-04-11T21:01:04.586Z,43.27
2019-04-11T21:02:04.632Z,43.48
2019-04-11T21:03:04.653Z,43.27
2019-04-11T21:04:04.835Z,43.27
2019-04-11T21:05:04.532Z,43.59
2019-04-11T21:06:04.562Z,43.68
2019-04-11T21:07:04.686Z,43.89
2019-04-11T21:08:04.488Z,43.68
2019-04-11T21:09:04.488Z,43.59
2019-04-11T21:10:04.769Z,43.48
2019-04-11T21:11:05.235Z,43.59
2019-04-11T21:12:04.930Z,43.27
2019-04-11T21:13:06.903Z,43.48
2019-04-11T21:14:04.527Z,43.48
2019-04-11T21:15:04.416Z,43.68
2019-04-11T21:16:04.397Z,43.48
2019-04-11T21:17:04.396Z,43.59
2019-04-11T21:18:04.387Z,43.48
2019-04-11T21:19:04.385Z,43.68
2019-04-11T21:20:04.356Z,43.68
2019-04-11T21:21:04.346Z,44.10
2019-04-11T21:22:04.336Z,44.20
2019-04-11T21:23:04.390Z,44.02
2019-04-11T21:24:04.327Z,44.02
2019-04-11T21:25:04.326Z,44.02
2019-04-11T21:26:04.605Z,44.02
2019-04-11T21:27:04.335Z,43.79
2019-04-11T21:28:04.370Z,43.89
2019-04-11T21:29:04.405Z,43.68
2019-04-11T21:30:04.269Z,43.91
2019-04-11T21:31:04.234Z,44.12
2019-04-11T21:32:04.235Z,44.12
2019-04-11T21:33:04.291Z,44.32
2019-04-11T21:34:04.208Z,44.43
2019-04-11T21:35:04.246Z,44.53
2019-04-11T21:36:04.235Z,44.74
2019-04-11T21:37:04.305Z,44.84
2019-04-11T21:38:04.210Z,44.95
2019-04-11T21:39:04.461Z,45.05
2019-04-11T21:40:04.155Z,45.26
2019-04-11T21:41:06.100Z,45.26
2019-04-11T21:42:06.114Z,45.36
2019-04-11T21:43:06.144Z,45.15
2019-04-11T21:44:06.072Z,45.15
2019-04-11T21:45:06.252Z,45.56
2019-04-11T21:46:06.947Z,46.11
2019-04-11T21:47:04.118Z,44.96
2019-04-11T21:48:05.598Z,45.07
2019-04-11T21:49:06.300Z,45.28
2019-04-11T21:50:04.025Z,45.38
2019-04-11T21:51:04.025Z,45.05
2019-04-11T21:52:04.035Z,45.07
2019-04-11T21:53:04.034Z,44.74
2019-04-11T21:54:04.008Z,44.56
2019-04-11T21:55:03.990Z,44.64
2019-04-11T21:56:04.004Z,44.45
2019-04-11T21:57:03.968Z,44.12
2019-04-11T21:58:03.952Z,44.12
2019-04-11T21:59:03.956Z,44.12
2019-04-11T22:00:03.941Z,44.32
2019-04-11T22:01:03.905Z,44.43
2019-04-11T22:02:03.924Z,44.04
2019-04-11T22:03:06.559Z,44.24
2019-04-11T22:04:03.884Z,44.04
2019-04-11T22:05:03.873Z,44.24
2019-04-11T22:06:03.867Z,43.93
2019-04-11T22:07:03.844Z,44.04
2019-04-11T22:08:04.024Z,44.14
2019-04-11T22:09:05.076Z,43.21
2019-04-11T22:10:06.962Z,43.83
2019-04-11T22:11:03.796Z,44.14
2019-04-11T22:12:07.917Z,44.14
2019-04-11T22:13:03.791Z,44.04
2019-04-11T22:14:03.782Z,44.04
2019-04-11T22:15:03.764Z,44.24
2019-04-11T22:16:03.749Z,44.35
2019-04-11T22:17:03.755Z,44.24
2019-04-11T22:18:03.833Z,43.64
2019-04-11T22:19:03.732Z,43.64
2019-04-11T22:20:04.395Z,43.74
2019-04-11T22:21:03.743Z,43.74
2019-04-11T22:22:03.683Z,43.33
2019-04-11T22:23:03.683Z,43.54
2019-04-11T22:24:03.665Z,43.33
2019-04-11T22:25:03.653Z,42.09
2019-04-11T22:26:03.750Z,40.12
2019-04-11T22:27:03.701Z,40.54
2019-04-11T22:28:03.641Z,40.85
2019-04-11T22:29:03.627Z,40.75
2019-04-11T22:30:03.613Z,40.54
2019-04-11T22:31:03.586Z,40.64
2019-04-11T22:32:03.583Z,40.64
2019-04-11T22:33:03.573Z,40.75
2019-04-11T22:34:03.573Z,40.44
2019-04-11T22:35:03.543Z,40.85
2019-04-11T22:36:03.542Z,40.44
2019-04-11T22:37:03.526Z,40.23
2019-04-11T22:38:03.526Z,40.75
2019-04-11T22:39:03.582Z,40.44
2019-04-11T22:40:03.490Z,40.44
2019-04-11T22:41:03.512Z,39.81
2019-04-11T22:42:03.489Z,40.02
2019-04-11T22:43:07.451Z,40.12
2019-04-11T22:44:03.474Z,40.12
2019-04-11T22:45:03.452Z,40.12
2019-04-11T22:46:03.433Z,40.02
2019-04-11T22:47:03.420Z,40.12
2019-04-11T22:48:03.435Z,40.33
2019-04-11T22:49:03.395Z,40.23
2019-04-11T22:50:03.406Z,40.44
2019-04-11T22:51:03.379Z,40.64
2019-04-11T22:52:03.371Z,40.64
2019-04-11T22:53:03.367Z,40.33
2019-04-11T22:54:03.343Z,40.54
2019-04-11T22:55:03.344Z,40.23
2019-04-11T22:56:03.321Z,40.33
2019-04-11T22:57:03.303Z,40.54
2019-04-11T22:58:03.292Z,40.75
2019-04-11T22:59:03.280Z,40.54
2019-04-11T23:00:03.293Z,40.44
2019-04-11T23:01:03.290Z,40.33
2019-04-11T23:02:03.251Z,40.44
2019-04-11T23:03:03.244Z,40.12
2019-04-11T23:04:03.243Z,40.12
2019-04-11T23:05:03.231Z,40.02
2019-04-11T23:06:03.205Z,39.81
2019-04-11T23:07:03.221Z,39.92
2019-04-11T23:08:03.191Z,39.72
2019-04-11T23:09:03.185Z,39.72
2019-04-11T23:10:03.186Z,39.61
2019-04-11T23:11:03.191Z,39.40
2019-04-11T23:12:03.141Z,39.72
2019-04-11T23:13:03.131Z,39.61
2019-04-11T23:14:03.121Z,39.61
2019-04-11T23:15:03.111Z,39.51
2019-04-11T23:16:03.100Z,39.51
2019-04-11T23:17:03.110Z,39.72
2019-04-11T23:18:03.100Z,39.72
2019-04-11T23:19:03.068Z,39.51
2019-04-11T23:20:03.074Z,39.61
2019-04-11T23:21:03.043Z,39.92
2019-04-11T23:22:03.032Z,39.92
2019-04-11T23:23:03.040Z,40.23
2019-04-11T23:24:11.457Z,39.81
2019-04-11T23:25:04.010Z,39.61
2019-04-11T23:26:03.046Z,39.72
2019-04-11T23:27:02.990Z,39.72
2019-04-11T23:28:02.989Z,39.72
2019-04-11T23:29:02.959Z,39.81
2019-04-11T23:30:02.949Z,39.92
2019-04-11T23:31:02.951Z,40.12
2019-04-11T23:32:02.941Z,40.12
2019-04-11T23:33:02.923Z,40.33
2019-04-11T23:34:02.945Z,40.44
2019-04-11T23:35:02.889Z,40.12
2019-04-11T23:36:03.766Z,40.12
2019-04-11T23:37:02.885Z,40.12
2019-04-11T23:38:02.864Z,40.12
2019-04-11T23:39:02.858Z,40.23
2019-04-11T23:40:02.860Z,40.66
2019-04-11T23:41:02.849Z,40.66
2019-04-11T23:42:02.829Z,40.56
2019-04-11T23:43:02.819Z,40.56
2019-04-11T23:44:02.820Z,40.77
2019-04-11T23:45:02.791Z,40.45
2019-04-11T23:46:02.769Z,40.56
2019-04-11T23:47:02.772Z,40.45
2019-04-11T23:48:02.760Z,40.66
2019-04-11T23:49:02.748Z,40.66
2019-04-11T23:50:02.738Z,40.77
2019-04-11T23:51:02.750Z,41.28
2019-04-11T23:52:02.721Z,40.77
2019-04-11T23:53:02.708Z,40.87
2019-04-11T23:54:02.707Z,40.87
2019-04-11T23:55:02.711Z,41.28
2019-04-11T23:56:02.785Z,41.08
2019-04-11T23:57:02.662Z,40.77
2019-04-11T23:58:02.651Z,40.56
2019-04-11T23:59:02.731Z,40.77
